Olney, TX

12:12 AM CST on March 06, 2015 (GMT -0600)
Stephens County | Change Station
CLOSE
Current Station
Airport
Location: Breckenridge,
Elevation: 1283 ft
Nearby Weather Stations

Elev 1283 ft 32.72 °N, 98.89 °W | Updated 17 minutes ago

Clear
Clear
30 °F
Feels Like 23 °F
N
8
Wind Variable Wind from SSE

Today
High -- | Low -- °F
--% Chance of Precip.
Yesterday
High -- | Low -- °F
Precip. -- in
6:57 AM 6:35 PM
Full, 100% visible
Pressure 30.55 in
Visibility 10.0 miles
Clouds Clear
Windchill 23 °F
Dew Point 24 °F
Humidity 79%
Rainfall 0.00 in
Snow Depth Not available.
UV 0 out of 12
Pollen 3.40 out of 12
Air Quality Not available.
Flu Activity Not available.
METAR KBKD 060555Z AUTO 16007KT 10SM CLR M01/M04 A3055 RMK AO2 T10101043 10045 21010 400551053

More Conditions Fewer Conditions

Pressure 30.55 in
Visibility 10.0 miles
Clouds Clear
Windchill 23 °F
Dew Point 24 °F
Humidity 79%
Rainfall 0.00 in
Snow Depth Not available.
UV 0 out of 12
Pollen 3.40 out of 12
Air Quality Not available.
Flu Activity Not available.
METAR KBKD 060555Z AUTO 16007KT 10SM CLR M01/M04 A3055 RMK AO2 T10101043 10045 21010 400551053

More Conditions Fewer Conditions

10-Day Weather Forecast

Almanac

Astronomy

Mar. 06, 2015 Rise Set
Actual Time
Civil Twilight
Nautical Twilight
Astronomical Twilight
Moon
Length of Visible Light
Length of Day
Tomorrow will be .
, % of the Moon is Illuminated

Today's Extremes

State Highs State Lows

Community

WunderPhotos

Upload Photos

1,803,194 photos uploaded!

WunderBlogs® & News

Nearby

Air Quality

  Air Quality AQ Index Pollutant
Not available.

Snow Depth

Station Depth Elevation

Earthquake Activity

City Distance Mag. Time & Date
Minimum magnitude displayed is 2.5.

Coastal Water Temperatures

Place Temperature

Nearby Weather Stations